Time;durP1;ratioP1;P1;durP2;ratioP2;P2;SDS_P1;SDS_P2;PMS_P1;PMS_P2;Temp;Humidity;BMP_temperature;BMP_pressure;BME280_temperature;BME280_humidity;BME280_pressure;Samples;Min_cycle;Max_cycle;Signal;HPM_P1;HPM_P2
2023/05/13 00:00:43;;;;;;;;;5.00;5.00;;;;;14.04;100.00;101731.59;5077696;28;45325;-68
2023/05/13 00:03:08;;;;;;;;;11.67;7.33;;;;;14.00;100.00;101724.69;5080536;28;46087;-68
2023/05/13 00:05:33;;;;;;;;;11.00;9.67;;;;;14.06;100.00;101740.38;5060450;28;50834;-68
2023/05/13 00:08:01;;;;;;;;;8.33;6.00;;;;;14.06;100.00;101744.84;5072705;28;45291;-68
2023/05/13 00:10:26;;;;;;;;;9.33;7.67;;;;;14.07;100.00;101742.09;5061702;28;45442;-68
2023/05/13 00:12:52;;;;;;;;;12.00;10.67;;;;;13.92;100.00;101716.22;5068225;28;49713;-68
2023/05/13 00:15:17;;;;;;;;;9.00;8.33;;;;;14.04;100.00;101734.25;5068044;28;45484;-68
2023/05/13 00:17:42;;;;;;;;;12.00;10.33;;;;;13.92;100.00;101707.38;5066463;28;45540;-68
2023/05/13 00:20:08;;;;;;;;;7.67;6.67;;;;;14.03;100.00;101740.53;5074267;28;45457;-68
2023/05/13 00:22:33;;;;;;;;;8.00;8.00;;;;;13.85;100.00;101714.75;5074417;28;46196;-68
2023/05/13 00:24:59;;;;;;;;;8.00;7.67;;;;;13.91;100.00;101740.19;5070011;28;45422;-68
2023/05/13 00:27:24;;;;;;;;;7.67;7.67;;;;;13.94;100.00;101750.69;5062587;28;45438;-68
2023/05/13 00:29:49;;;;;;;;;13.00;10.33;;;;;13.90;100.00;101750.00;5065163;28;45415;-68
2023/05/13 00:32:15;;;;;;;;;8.00;8.00;;;;;13.86;100.00;101745.75;5086850;27;46128;-68
2023/05/13 00:34:40;;;;;;;;;11.33;8.33;;;;;13.88;100.00;101754.50;5060505;28;45295;-69
2023/05/13 00:37:05;;;;;;;;;8.00;8.00;;;;;13.85;100.00;101749.34;5072590;28;45359;-68
2023/05/13 00:39:31;;;;;;;;;7.00;7.00;;;;;13.80;100.00;101747.81;5066159;27;45399;-69
2023/05/13 00:41:58;;;;;;;;;13.33;11.67;;;;;13.85;100.00;101756.44;5060348;28;46004;-68
2023/05/13 00:44:23;;;;;;;;;8.00;8.00;;;;;13.79;100.00;101752.28;5067438;28;45422;-68
2023/05/13 00:46:49;;;;;;;;;11.00;9.33;;;;;13.78;100.00;101747.88;5068496;28;45305;-68
2023/05/13 00:49:15;;;;;;;;;15.33;9.33;;;;;13.79;100.00;101746.97;5060082;28;45458;-69
2023/05/13 00:51:40;;;;;;;;;11.33;7.33;;;;;13.77;100.00;101747.97;5073574;28;45394;-68
2023/05/13 00:54:05;;;;;;;;;12.67;9.33;;;;;13.75;100.00;101749.81;5061414;27;45342;-68
2023/05/13 00:56:30;;;;;;;;;12.00;8.67;;;;;13.73;100.00;101743.72;5060384;28;45325;-68
2023/05/13 00:58:56;;;;;;;;;9.67;7.33;;;;;13.68;100.00;101754.53;5061764;28;45540;-68
2023/05/13 01:01:33;;;;;;;;;10.33;7.67;;;;;13.64;100.00;101766.28;5071514;28;46215;-68
2023/05/13 01:04:25;;;;;;;;;6.33;5.67;;;;;13.57;100.00;101751.53;5064398;28;45418;-69
2023/05/13 01:07:06;;;;;;;;;12.00;11.00;;;;;13.56;100.00;101755.09;5064686;28;45323;-68
2023/05/13 01:09:39;;;;;;;;;10.33;9.33;;;;;13.55;100.00;101756.03;5068876;28;45251;-68
2023/05/13 01:12:09;;;;;;;;;12.33;10.67;;;;;13.50;100.00;101753.59;5064101;28;46396;-68
2023/05/13 01:14:46;;;;;;;;;9.67;8.67;;;;;13.44;100.00;101745.03;5063235;28;45253;-69
2023/05/13 01:17:17;;;;;;;;;10.33;9.33;;;;;13.43;100.00;101762.75;5060107;28;45475;-69
2023/05/13 01:19:48;;;;;;;;;9.33;7.33;;;;;13.40;100.00;101752.25;5058966;28;45262;-69
2023/05/13 01:22:13;;;;;;;;;7.00;7.00;;;;;13.37;100.00;101749.75;5059578;28;46092;-68
2023/05/13 01:24:38;;;;;;;;;12.67;8.33;;;;;13.32;100.00;101756.16;5074988;28;45370;-69
2023/05/13 01:27:05;;;;;;;;;11.67;10.33;;;;;13.34;100.00;101762.28;5068917;28;47177;-69
2023/05/13 01:29:30;;;;;;;;;9.33;9.33;;;;;13.25;100.00;101739.63;5072288;28;45474;-68
2023/05/13 01:31:59;;;;;;;;;9.00;8.67;;;;;13.28;100.00;101755.47;5059085;28;45443;-68
2023/05/13 01:34:26;;;;;;;;;10.00;8.67;;;;;13.25;100.00;101758.22;5059284;28;45331;-68
2023/05/13 01:36:51;;;;;;;;;11.00;11.00;;;;;13.21;100.00;101751.34;5068655;28;45307;-69
2023/05/13 01:39:18;;;;;;;;;12.67;10.67;;;;;13.19;100.00;101765.59;5064242;28;45602;-69
2023/05/13 01:41:44;;;;;;;;;7.67;7.67;;;;;13.14;100.00;101749.00;5079560;27;45462;-68
2023/05/13 01:44:09;;;;;;;;;10.67;10.67;;;;;13.17;100.00;101763.00;5063109;27;45394;-69
2023/05/13 01:46:37;;;;;;;;;11.00;10.33;;;;;13.23;100.00;101772.50;5072631;28;45484;-68
2023/05/13 01:49:02;;;;;;;;;12.00;9.33;;;;;13.18;100.00;101747.94;5071762;28;45214;-68
2023/05/13 01:51:28;;;;;;;;;10.67;10.67;;;;;13.17;100.00;101754.16;5065325;28;46216;-69
2023/05/13 01:53:53;;;;;;;;;12.00;10.00;;;;;13.23;100.00;101769.84;5065471;28;53618;-68
2023/05/13 01:56:18;;;;;;;;;11.00;10.33;;;;;13.17;100.00;101757.69;5063353;28;56646;-68
2023/05/13 01:58:44;;;;;;;;;12.33;9.67;;;;;13.17;100.00;101762.16;5061854;28;45330;-68
2023/05/13 02:01:09;;;;;;;;;10.00;10.00;;;;;13.17;100.00;101770.97;5064305;28;48548;-68
2023/05/13 02:03:35;;;;;;;;;14.00;12.00;;;;;13.14;100.00;101778.22;5064012;28;45686;-69
2023/05/13 02:06:00;;;;;;;;;13.00;12.00;;;;;13.10;100.00;101769.50;5063225;28;45238;-68
2023/05/13 02:08:26;;;;;;;;;12.00;12.00;;;;;13.16;100.00;101771.03;5073896;28;45271;-69
2023/05/13 02:10:58;;;;;;;;;10.00;10.00;;;;;13.14;100.00;101767.59;5075267;28;45462;-69
2023/05/13 02:13:24;;;;;;;;;14.33;11.00;;;;;13.13;100.00;101764.06;5066088;28;45275;-69
2023/05/13 02:15:50;;;;;;;;;13.67;13.00;;;;;13.12;100.00;101761.50;5063676;28;45240;-69
2023/05/13 02:18:15;;;;;;;;;15.67;13.33;;;;;13.04;100.00;101759.97;5069323;28;45445;-69
2023/05/13 02:20:40;;;;;;;;;13.33;11.00;;;;;13.05;100.00;101763.50;5067128;28;46251;-69
2023/05/13 02:23:06;;;;;;;;;12.67;12.67;;;;;13.03;100.00;101765.34;5062392;28;45272;-69
2023/05/13 02:25:32;;;;;;;;;15.00;12.00;;;;;12.93;100.00;101751.59;5058696;28;45394;-69
2023/05/13 02:27:58;;;;;;;;;14.67;11.67;;;;;13.02;100.00;101766.28;5070092;28;45481;-69
2023/05/13 02:30:25;;;;;;;;;13.00;12.00;;;;;12.97;100.00;101762.94;5066392;27;47120;-69
2023/05/13 02:32:52;;;;;;;;;14.33;11.67;;;;;13.01;100.00;101772.53;5067933;28;45371;-69
2023/05/13 02:35:17;;;;;;;;;13.67;11.33;;;;;12.98;100.00;101772.66;5061791;28;45477;-68
2023/05/13 02:37:43;;;;;;;;;20.00;14.67;;;;;12.94;100.00;101765.72;5060034;28;45537;-67
2023/05/13 02:40:09;;;;;;;;;14.33;14.33;;;;;12.86;100.00;101758.06;5060947;28;45674;-68
2023/05/13 02:42:34;;;;;;;;;12.00;12.00;;;;;12.88;100.00;101768.66;5075883;28;45350;-68
2023/05/13 02:45:00;;;;;;;;;17.00;13.67;;;;;12.85;100.00;101763.47;5071036;28;45290;-69
2023/05/13 02:47:25;;;;;;;;;19.67;14.00;;;;;12.86;100.00;101763.38;5068646;27;45378;-68
2023/05/13 02:49:50;;;;;;;;;15.00;15.00;;;;;12.82;100.00;101745.00;5081746;27;46001;-69
2023/05/13 02:52:16;;;;;;;;;20.00;17.67;;;;;12.85;100.00;101756.38;5067607;27;45291;-68
2023/05/13 02:54:41;;;;;;;;;19.00;15.00;;;;;12.89;100.00;101759.75;5066970;28;53517;-69
2023/05/13 02:57:06;;;;;;;;;16.67;15.33;;;;;12.84;100.00;101759.94;5064880;28;45681;-69
2023/05/13 02:59:32;;;;;;;;;21.00;19.67;;;;;12.85;100.00;101760.81;5080149;28;47995;-68
2023/05/13 03:01:57;;;;;;;;;28.33;23.67;;;;;12.88;100.00;101768.66;5068203;28;45370;-69
2023/05/13 03:04:23;;;;;;;;;26.67;24.00;;;;;12.93;100.00;101764.00;5071524;27;45355;-69
2023/05/13 03:06:49;;;;;;;;;28.67;27.33;;;;;12.87;100.00;101758.94;5074966;28;45549;-69
2023/05/13 03:09:15;;;;;;;;;23.67;19.33;;;;;12.95;100.00;101767.47;5070370;28;45377;-69
2023/05/13 03:11:40;;;;;;;;;28.00;23.67;;;;;12.82;100.00;101747.66;5066544;27;45440;-69
2023/05/13 03:14:05;;;;;;;;;27.00;22.00;;;;;12.93;100.00;101770.16;5061374;28;45468;-69
2023/05/13 03:16:31;;;;;;;;;23.33;21.67;;;;;12.91;100.00;101772.03;5070492;28;45458;-68
2023/05/13 03:18:56;;;;;;;;;23.33;21.33;;;;;12.90;100.00;101772.97;5076155;27;46181;-68
2023/05/13 03:21:21;;;;;;;;;23.67;23.00;;;;;12.95;100.00;101771.00;5066400;28;55382;-68
2023/05/13 03:23:47;;;;;;;;;26.67;24.67;;;;;12.95;100.00;101772.78;5062336;28;45587;-68
2023/05/13 03:26:12;;;;;;;;;37.33;31.67;;;;;12.97;100.00;101770.91;5063915;28;45512;-68
2023/05/13 03:28:37;;;;;;;;;33.00;32.67;;;;;12.91;100.00;101765.88;5069800;28;45370;-68
2023/05/13 03:31:02;;;;;;;;;42.50;34.50;;;;;12.95;100.00;101768.34;5076341;27;45653;-69
2023/05/13 03:33:28;;;;;;;;;41.00;34.75;;;;;12.97;100.00;101770.91;5061537;28;45397;-68
2023/05/13 03:35:54;;;;;;;;;45.50;38.75;;;;;12.96;100.00;101780.66;5070227;28;45741;-68
2023/05/13 03:38:19;;;;;;;;;50.00;39.50;;;;;12.97;100.00;101771.78;5063263;28;46167;-69
2023/05/13 03:40:44;;;;;;;;;58.00;45.75;;;;;13.00;100.00;101779.63;5081743;28;45773;-69
2023/05/13 03:43:10;;;;;;;;;53.00;43.00;;;;;13.02;100.00;101779.56;5073068;27;45411;-69
2023/05/13 03:45:35;;;;;;;;;52.00;43.75;;;;;13.02;100.00;101783.06;5073129;28;56418;-69
2023/05/13 03:48:00;;;;;;;;;61.00;45.75;;;;;13.03;100.00;101778.63;5070298;28;56149;-69
2023/05/13 03:50:26;;;;;;;;;57.25;45.25;;;;;12.95;100.00;101770.13;5065222;28;45476;-69
2023/05/13 03:52:51;;;;;;;;;60.25;48.25;;;;;12.98;100.00;101783.28;5060642;28;45328;-68
2023/05/13 03:55:16;;;;;;;;;57.75;47.25;;;;;13.02;100.00;101782.22;5079228;28;45649;-69
2023/05/13 03:57:46;;;;;;;;;61.25;48.50;;;;;12.85;100.00;101753.72;5072740;27;55345;-69
2023/05/13 04:00:12;;;;;;;;;60.75;48.00;;;;;12.99;100.00;101787.63;5074591;28;45298;-69
2023/05/13 04:02:37;;;;;;;;;57.25;48.00;;;;;12.93;100.00;101772.84;5064422;28;45356;-69
2023/05/13 04:05:04;;;;;;;;;60.75;50.25;;;;;12.95;100.00;101778.97;5062241;28;52060;-69
2023/05/13 04:07:30;;;;;;;;;64.00;50.00;;;;;13.01;100.00;101791.09;5073076;27;46193;-69
2023/05/13 04:09:55;;;;;;;;;62.00;50.75;;;;;13.00;100.00;101797.34;5072284;28;45248;-68
2023/05/13 04:12:20;;;;;;;;;62.75;50.50;;;;;12.90;100.00;101791.53;5059225;28;54588;-68
2023/05/13 04:14:45;;;;;;;;;64.75;49.00;;;;;12.89;100.00;101792.47;5074079;28;49271;-68
2023/05/13 04:17:11;;;;;;;;;62.00;46.75;;;;;12.98;100.00;101805.38;5068401;28;45914;-68
2023/05/13 04:19:36;;;;;;;;;62.75;50.00;;;;;13.06;100.00;101810.34;5066561;27;45341;-68
2023/05/13 04:22:01;;;;;;;;;66.75;51.25;;;;;13.00;100.00;101797.34;5060552;28;51386;-69
2023/05/13 04:24:27;;;;;;;;;61.25;49.75;;;;;13.11;100.00;101807.56;5069148;28;45574;-68
2023/05/13 04:26:52;;;;;;;;;63.25;48.00;;;;;13.11;100.00;101805.78;5080692;28;45346;-68
2023/05/13 04:29:17;;;;;;;;;56.25;47.25;;;;;13.09;100.00;101806.78;5078222;27;45422;-68
2023/05/13 04:31:43;;;;;;;;;61.25;48.50;;;;;13.11;100.00;101816.41;5073391;27;45332;-68
2023/05/13 04:34:09;;;;;;;;;63.75;48.75;;;;;13.11;100.00;101815.53;5067708;28;45401;-69
2023/05/13 04:36:34;;;;;;;;;58.00;48.00;;;;;13.12;100.00;101811.94;5068898;28;51457;-69
2023/05/13 04:38:59;;;;;;;;;64.50;49.00;;;;;13.08;100.00;101805.88;5063804;28;45276;-68
2023/05/13 04:41:25;;;;;;;;;67.75;49.75;;;;;13.05;100.00;101806.84;5076853;28;45513;-68
2023/05/13 04:43:50;;;;;;;;;62.50;49.00;;;;;12.96;100.00;101785.97;5066754;27;45458;-69
2023/05/13 04:46:15;;;;;;;;;64.75;48.00;;;;;12.97;100.00;101787.72;5071524;28;45435;-68
2023/05/13 04:48:41;;;;;;;;;58.00;47.75;;;;;13.13;100.00;101813.66;5073587;28;45353;-67
2023/05/13 04:51:07;;;;;;;;;61.25;50.25;;;;;13.12;100.00;101818.09;5067477;28;45368;-68
2023/05/13 04:53:32;;;;;;;;;63.75;49.25;;;;;13.13;100.00;101827.81;5072662;27;45459;-68
2023/05/13 04:55:59;;;;;;;;;63.25;48.00;;;;;13.17;100.00;101832.06;5059933;28;47299;-68
2023/05/13 04:58:26;;;;;;;;;60.75;48.75;;;;;13.15;100.00;101828.63;5061968;28;45361;-68
2023/05/13 05:00:52;;;;;;;;;60.50;47.75;;;;;13.13;100.00;101821.63;5080305;27;45404;-68
2023/05/13 05:03:17;;;;;;;;;66.25;51.00;;;;;13.27;100.00;101848.50;5078147;27;45431;-68
2023/05/13 05:05:42;;;;;;;;;57.00;45.25;;;;;13.29;100.00;101849.28;5059269;28;46568;-69
2023/05/13 05:08:07;;;;;;;;;61.25;48.75;;;;;13.25;100.00;101829.94;5067880;28;48235;-68
2023/05/13 05:10:33;;;;;;;;;58.50;47.00;;;;;13.33;100.00;101849.09;5063786;28;49901;-68
2023/05/13 05:12:58;;;;;;;;;59.75;47.25;;;;;13.26;100.00;101831.69;5069974;28;45570;-69
2023/05/13 05:15:24;;;;;;;;;64.25;49.25;;;;;13.36;100.00;101840.13;5060034;28;45386;-69
2023/05/13 05:17:49;;;;;;;;;61.25;49.25;;;;;13.43;100.00;101853.09;5059845;28;45371;-69
2023/05/13 05:20:15;;;;;;;;;63.75;49.00;;;;;13.51;100.00;101864.25;5059379;28;45320;-69
2023/05/13 05:22:41;;;;;;;;;61.00;48.00;;;;;13.55;100.00;101865.00;5070870;28;45297;-69
2023/05/13 05:25:07;;;;;;;;;64.75;50.50;;;;;13.60;100.00;101857.72;5061067;28;46102;-69
2023/05/13 05:27:33;;;;;;;;;61.25;48.50;;;;;13.66;100.00;101877.84;5067358;28;45364;-69
2023/05/13 05:29:58;;;;;;;;;54.25;44.50;;;;;13.69;100.00;101872.38;5059290;28;45887;-69
2023/05/13 05:32:23;;;;;;;;;57.25;45.75;;;;;13.76;100.00;101881.84;5059489;28;45614;-69
2023/05/13 05:34:49;;;;;;;;;55.25;44.75;;;;;13.75;100.00;101872.97;5078076;28;46191;-68
2023/05/13 05:37:14;;;;;;;;;56.00;45.00;;;;;13.82;100.00;101890.41;5067232;27;45498;-69
2023/05/13 05:39:40;;;;;;;;;58.75;45.25;;;;;13.81;100.00;101888.66;5059919;28;45436;-69
2023/05/13 05:42:06;;;;;;;;;58.25;47.50;;;;;13.77;100.00;101889.75;5062791;28;45635;-68
2023/05/13 05:44:32;;;;;;;;;61.25;48.00;;;;;13.69;100.00;101877.69;5067354;27;46507;-69
2023/05/13 05:46:57;;;;;;;;;53.75;44.25;;;;;13.72;100.00;101896.19;5074583;27;45612;-68
2023/05/13 05:49:22;;;;;;;;;56.00;44.25;;;;;13.70;100.00;101895.38;5071979;28;45363;-69
2023/05/13 05:51:48;;;;;;;;;48.00;39.50;;;;;13.61;100.00;101893.13;5077467;27;45442;-69
2023/05/13 05:54:13;;;;;;;;;51.50;43.00;;;;;13.66;100.00;101902.63;5059778;28;46096;-69
2023/05/13 05:56:38;;;;;;;;;57.25;43.75;;;;;13.65;100.00;101897.38;5059082;28;45573;-69
2023/05/13 05:59:04;;;;;;;;;53.75;42.50;;;;;13.67;100.00;101891.06;5064786;28;45402;-69
2023/05/13 06:01:32;;;;;;;;;55.00;43.50;;;;;13.69;100.00;101905.16;5073503;27;45537;-69
2023/05/13 06:03:58;;;;;;;;;58.25;47.75;;;;;13.79;100.00;101910.94;5058903;28;46154;-69
2023/05/13 06:06:23;;;;;;;;;54.50;45.75;;;;;13.85;100.00;101908.03;5064076;28;45520;-69
2023/05/13 06:08:48;;;;;;;;;50.00;42.00;;;;;13.87;100.00;101901.69;5059479;28;45268;-69
2023/05/13 06:11:14;;;;;;;;;57.50;44.75;;;;;13.94;100.00;101900.50;5058800;28;45359;-69
2023/05/13 06:13:39;;;;;;;;;53.00;39.50;;;;;14.01;100.00;101907.28;5062705;28;46069;-69
2023/05/13 06:16:05;;;;;;;;;54.75;44.25;;;;;14.16;100.00;101927.06;5067016;28;45494;-69
2023/05/13 06:18:30;;;;;;;;;49.75;41.25;;;;;14.25;100.00;101915.13;5058724;28;45389;-69
2023/05/13 06:20:56;;;;;;;;;57.50;46.00;;;;;14.29;100.00;101916.72;5073892;28;50094;-69
2023/05/13 06:23:21;;;;;;;;;53.75;43.75;;;;;14.23;100.00;101901.03;5065992;28;45526;-69
2023/05/13 06:25:46;;;;;;;;;54.50;46.25;;;;;14.29;100.00;101914.94;5062180;28;47897;-69
2023/05/13 06:28:12;;;;;;;;;55.00;43.50;;;;;14.29;100.00;101917.59;5058149;28;45310;-69
2023/05/13 06:30:37;;;;;;;;;53.50;42.25;;;;;14.38;100.00;101922.53;5064505;28;45340;-69
2023/05/13 06:33:03;;;;;;;;;52.50;43.50;;;;;14.55;100.00;101930.63;5073499;28;46294;-69
2023/05/13 06:35:29;;;;;;;;;56.00;44.00;;;;;14.66;100.00;101937.25;5066568;28;45398;-69
2023/05/13 06:37:54;;;;;;;;;55.25;42.00;;;;;14.74;100.00;101933.28;5071906;27;45279;-69
2023/05/13 06:40:19;;;;;;;;;52.50;43.25;;;;;14.89;100.00;101939.69;5058478;28;45426;-68
2023/05/13 06:42:45;;;;;;;;;55.75;44.50;;;;;15.01;100.00;101933.81;5058288;28;46136;-68
2023/05/13 06:45:10;;;;;;;;;51.75;42.25;;;;;15.02;100.00;101940.84;5068434;28;45430;-69
2023/05/13 06:47:35;;;;;;;;;52.25;42.75;;;;;15.03;100.00;101946.09;5064588;28;51970;-69
2023/05/13 06:50:02;;;;;;;;;54.00;42.25;;;;;15.02;100.00;101946.16;5078189;27;45532;-68
2023/05/13 06:52:27;;;;;;;;;55.75;41.50;;;;;15.05;100.00;101949.56;5077780;28;46572;-68
2023/05/13 06:54:53;;;;;;;;;50.25;42.00;;;;;15.13;100.00;101935.88;5064832;28;45299;-70
2023/05/13 06:57:18;;;;;;;;;55.00;44.25;;;;;15.23;100.00;101946.94;5058072;28;51662;-70
2023/05/13 06:59:43;;;;;;;;;56.00;44.25;;;;;15.36;100.00;101946.28;5069708;28;58247;-69
2023/05/13 07:02:10;;;;;;;;;51.50;42.50;;;;;15.48;100.00;101947.50;5070695;27;51591;-69
2023/05/13 07:04:35;;;;;;;;;53.00;43.25;;;;;15.44;100.00;101943.25;5057589;28;45244;-68
2023/05/13 07:07:01;;;;;;;;;54.00;42.00;;;;;15.43;100.00;101952.19;5075283;28;45461;-69
2023/05/13 07:09:26;;;;;;;;;52.25;42.75;;;;;15.43;100.00;101945.06;5071284;28;45304;-69
2023/05/13 07:11:52;;;;;;;;;57.25;46.00;;;;;15.47;100.00;101951.97;5064518;28;45405;-69
2023/05/13 07:14:17;;;;;;;;;59.25;43.75;;;;;15.45;100.00;101952.97;5064288;27;45347;-69
2023/05/13 07:16:43;;;;;;;;;51.00;43.00;;;;;15.45;100.00;101951.16;5062272;28;45409;-68
2023/05/13 07:19:08;;;;;;;;;57.50;44.00;;;;;15.46;100.00;101946.69;5078323;27;45354;-69
2023/05/13 07:21:34;;;;;;;;;51.75;42.75;;;;;15.45;100.00;101945.81;5077612;27;45564;-68
2023/05/13 07:24:01;;;;;;;;;60.75;47.75;;;;;15.48;100.00;101951.03;5078201;27;45372;-69
2023/05/13 07:26:26;;;;;;;;;55.25;46.25;;;;;15.56;100.00;101962.22;5077133;27;45438;-69
2023/05/13 07:28:51;;;;;;;;;55.50;45.00;;;;;15.45;100.00;101935.16;5067039;28;45355;-69
2023/05/13 07:31:17;;;;;;;;;56.50;47.00;;;;;15.56;100.00;101948.00;5065337;28;45381;-70
2023/05/13 07:33:42;;;;;;;;;58.50;44.50;;;;;15.61;100.00;101954.81;5069075;28;45483;-69
2023/05/13 07:36:08;;;;;;;;;52.50;42.00;;;;;15.58;100.00;101949.66;5063620;28;45290;-69
2023/05/13 07:38:33;;;;;;;;;58.25;45.00;;;;;15.68;100.00;101958.06;5061881;28;45682;-69
2023/05/13 07:40:58;;;;;;;;;55.75;44.00;;;;;15.71;100.00;101954.38;5066329;28;46233;-70
2023/05/13 07:43:24;;;;;;;;;58.50;45.00;;;;;15.80;100.00;101959.25;5075056;27;45291;-70
2023/05/13 07:45:50;;;;;;;;;56.00;43.25;;;;;15.86;100.00;101958.94;5061507;28;45355;-71
2023/05/13 07:48:16;;;;;;;;;52.75;43.75;;;;;15.95;100.00;101969.16;5069572;28;45304;-71
2023/05/13 07:50:43;;;;;;;;;55.25;43.50;;;;;16.02;100.00;101960.75;5065285;27;45421;-68
2023/05/13 07:53:08;;;;;;;;;60.25;47.25;;;;;16.18;100.00;101963.50;5060796;28;45434;-70
2023/05/13 07:55:33;;;;;;;;;55.00;44.25;;;;;16.18;100.00;101952.81;5073537;28;45868;-69
2023/05/13 07:57:59;;;;;;;;;53.00;44.50;;;;;16.26;100.00;101971.09;5061171;28;45325;-70
2023/05/13 08:00:24;;;;;;;;;57.00;45.75;;;;;16.22;100.00;101972.22;5070547;28;46062;-70
2023/05/13 08:02:50;;;;;;;;;54.75;44.00;;;;;16.32;100.00;101977.00;5064379;28;45344;-70
2023/05/13 08:05:15;;;;;;;;;55.00;44.50;;;;;16.43;100.00;101981.75;5077892;28;45443;-70
2023/05/13 08:07:40;;;;;;;;;56.75;42.75;;;;;16.39;100.00;101970.38;5063681;28;45952;-75
2023/05/13 08:10:06;;;;;;;;;59.50;45.25;;;;;16.40;99.61;101980.09;5076163;28;46016;-73
2023/05/13 08:12:32;;;;;;;;;54.75;43.50;;;;;16.38;98.61;101990.03;5060242;28;45714;-71
2023/05/13 08:14:57;;;;;;;;;64.00;46.50;;;;;16.35;100.00;101970.63;5066896;28;45562;-73
2023/05/13 08:17:22;;;;;;;;;56.00;45.00;;;;;16.45;100.00;101979.88;5080825;27;45268;-70
2023/05/13 08:19:47;;;;;;;;;56.50;45.75;;;;;16.48;100.00;101963.69;5071746;28;59566;-69
2023/05/13 08:22:13;;;;;;;;;60.00;45.00;;;;;16.56;100.00;101974.84;5060680;28;46870;-70
2023/05/13 08:24:41;;;;;;;;;59.25;45.50;;;;;16.58;99.71;101978.31;5067487;28;45359;-69
2023/05/13 08:27:07;;;;;;;;;48.50;42.00;;;;;16.54;97.60;101976.72;5067821;28;45474;-69
2023/05/13 08:29:32;;;;;;;;;53.50;42.50;;;;;16.43;97.54;101968.41;5073716;28;46220;-69
2023/05/13 08:31:58;;;;;;;;;57.50;46.00;;;;;16.50;100.00;101989.38;5067535;28;45502;-69
2023/05/13 08:34:23;;;;;;;;;61.50;46.00;;;;;16.50;98.83;101985.81;5073732;28;45258;-69
2023/05/13 08:36:48;;;;;;;;;60.50;45.00;;;;;16.55;99.47;101986.50;5060557;28;45935;-70
2023/05/13 08:39:14;;;;;;;;;58.25;46.00;;;;;16.44;98.68;101987.03;5066398;28;46222;-69
2023/05/13 08:41:40;;;;;;;;;57.75;44.50;;;;;16.40;96.95;101984.59;5068840;28;45426;-69
2023/05/13 08:44:08;;;;;;;;;63.00;47.00;;;;;16.46;99.84;101994.94;5067619;28;45344;-69
2023/05/13 08:46:37;;;;;;;;;53.75;44.00;;;;;16.44;96.97;101989.69;5066296;28;45470;-69
2023/05/13 08:49:03;;;;;;;;;60.25;48.00;;;;;16.37;96.87;101987.41;5070930;27;45572;-69
2023/05/13 08:51:29;;;;;;;;;56.00;45.00;;;;;16.33;100.00;101991.22;5072537;28;45633;-69
2023/05/13 08:53:55;;;;;;;;;62.00;47.25;;;;;16.26;98.55;101981.78;5063544;28;45488;-69
2023/05/13 08:56:27;;;;;;;;;58.25;45.00;;;;;16.26;98.88;101980.00;5076006;28;45417;-69
2023/05/13 08:58:52;;;;;;;;;51.75;42.50;;;;;16.33;99.46;101983.19;5060596;28;46058;-70
2023/05/13 09:01:18;;;;;;;;;61.50;47.75;;;;;16.32;96.77;101993.00;5065598;27;46160;-69
2023/05/13 09:03:56;;;;;;;;;60.00;47.75;;;;;16.24;98.37;101975.66;5062042;28;45394;-69
2023/05/13 09:06:22;;;;;;;;;58.50;45.25;;;;;16.30;100.00;101983.34;5060118;28;45404;-69
2023/05/13 09:08:47;;;;;;;;;57.50;46.00;;;;;16.35;99.40;101981.31;5062414;28;47183;-69
2023/05/13 09:11:13;;;;;;;;;51.75;43.25;;;;;16.37;97.40;101976.72;5065812;28;45480;-68
2023/05/13 09:13:39;;;;;;;;;52.75;44.25;;;;;16.40;100.00;101981.91;5077521;28;45320;-69
2023/05/13 09:16:05;;;;;;;;;60.75;46.75;;;;;16.52;100.00;101978.63;5066141;28;45219;-69
2023/05/13 09:18:31;;;;;;;;;58.25;46.00;;;;;16.63;96.60;101974.44;5076471;27;47195;-68
2023/05/13 09:20:56;;;;;;;;;59.75;46.50;;;;;16.70;95.85;101969.63;5069275;27;45544;-70
2023/05/13 09:23:22;;;;;;;;;56.50;46.00;;;;;16.85;93.52;101971.47;5059494;28;45307;-69
2023/05/13 09:25:48;;;;;;;;;54.50;44.00;;;;;16.98;93.74;101988.56;5067802;28;45299;-69
2023/05/13 09:28:14;;;;;;;;;61.50;47.25;;;;;17.01;92.79;101985.75;5062222;28;46034;-69
2023/05/13 09:30:40;;;;;;;;;48.25;37.50;;;;;16.95;94.59;101991.41;5068080;28;45387;-69
2023/05/13 09:33:10;;;;;;;;;56.00;44.50;;;;;16.95;93.66;101991.41;5076095;27;45414;-69
2023/05/13 09:35:42;;;;;;;;;54.25;44.25;;;;;16.87;92.71;101992.78;5065385;28;45485;-70
2023/05/13 09:38:15;;;;;;;;;54.00;45.50;;;;;16.76;93.95;101998.69;5072309;28;45536;-69
2023/05/13 09:40:51;;;;;;;;;56.25;46.00;;;;;16.63;93.96;101987.81;5066009;28;45473;-70
2023/05/13 09:43:19;;;;;;;;;58.50;48.50;;;;;16.69;92.64;101999.13;5058959;28;45312;-70
2023/05/13 09:45:44;;;;;;;;;49.00;41.50;;;;;16.77;94.13;101991.53;5059898;28;45296;-70
2023/05/13 09:48:10;;;;;;;;;53.25;43.75;;;;;16.99;92.94;101990.28;5063363;28;45368;-70
2023/05/13 09:50:47;;;;;;;;;56.75;45.00;;;;;17.25;93.37;101994.19;5060874;28;46384;-69
2023/05/13 09:53:12;;;;;;;;;55.50;45.00;;;;;17.29;88.70;101994.88;5058519;28;45336;-70
2023/05/13 09:55:37;;;;;;;;;57.00;43.25;;;;;16.99;90.04;101909.22;5060985;28;45423;-70
2023/05/13 09:58:10;;;;;;;;;57.75;45.75;;;;;17.58;87.54;101995.00;5076045;27;45997;-70
2023/05/13 10:00:36;;;;;;;;;56.25;45.00;;;;;17.59;90.46;101986.03;5059326;28;45320;-69
2023/05/13 10:03:03;;;;;;;;;57.25;45.00;;;;;17.74;89.04;101989.59;5060204;28;45521;-69
2023/05/13 10:05:29;;;;;;;;;53.00;41.25;;;;;17.63;88.24;101955.47;5066184;28;45408;-69
2023/05/13 10:07:55;;;;;;;;;47.00;39.50;;;;;17.82;85.00;101989.16;5064279;28;46384;-71
2023/05/13 10:10:21;;;;;;;;;51.50;40.25;;;;;17.88;83.16;101988.81;5058698;28;45418;-69
2023/05/13 10:12:49;;;;;;;;;48.00;38.00;;;;;18.12;82.55;101985.56;5058985;28;45338;-68
2023/05/13 10:15:15;;;;;;;;;57.00;44.25;;;;;18.20;87.57;101983.25;5073986;28;45520;-70
2023/05/13 10:17:41;;;;;;;;;56.75;42.75;;;;;18.38;82.39;101988.47;5078996;28;45410;-70
2023/05/13 10:20:07;;;;;;;;;52.75;42.50;;;;;18.39;80.81;101980.31;5065101;27;45577;-69
2023/05/13 10:22:33;;;;;;;;;45.00;39.00;;;;;18.58;85.35;101982.78;5070085;27;45529;-69
2023/05/13 10:25:00;;;;;;;;;53.50;42.50;;;;;18.80;84.01;101974.28;5074355;28;45401;-70
2023/05/13 10:27:29;;;;;;;;;43.50;37.50;;;;;18.77;82.08;101956.56;5069642;28;45484;-69
2023/05/13 10:29:56;;;;;;;;;49.50;40.00;;;;;18.89;80.00;101954.91;5058513;28;45356;-70
2023/05/13 10:32:24;;;;;;;;;49.50;41.25;;;;;19.01;78.55;101964.88;5068713;28;45234;-70
2023/05/13 10:34:56;;;;;;;;;48.00;39.75;;;;;19.07;81.77;101961.81;5067177;27;46375;-69
2023/05/13 10:37:32;;;;;;;;;49.50;41.25;;;;;19.10;82.07;101950.88;5068959;28;45604;-69
2023/05/13 10:40:16;;;;;;;;;48.25;40.75;;;;;19.06;79.15;101958.25;5058642;28;45292;-70
2023/05/13 10:43:00;;;;;;;;;48.00;38.75;;;;;18.90;79.30;101954.84;5070487;28;45315;-69
2023/05/13 10:45:28;;;;;;;;;48.00;39.75;;;;;18.95;80.41;101947.34;5059903;28;45279;-69
2023/05/13 10:47:55;;;;;;;;;51.50;42.00;;;;;19.20;78.29;101950.19;5075783;28;46241;-70
2023/05/13 10:50:24;;;;;;;;;48.50;39.25;;;;;19.44;76.93;101939.69;5077929;27;45351;-70
2023/05/13 10:52:55;;;;;;;;;49.25;39.75;;;;;19.72;79.94;101939.59;5059898;27;45291;-69
2023/05/13 10:55:20;;;;;;;;;53.50;40.75;;;;;19.87;74.60;101936.81;5073753;28;45370;-70
2023/05/13 10:58:08;;;;;;;;;52.25;42.50;;;;;20.00;73.99;101935.88;5059444;28;47426;-70
2023/05/13 11:00:34;;;;;;;;;48.50;38.75;;;;;20.06;74.68;101940.81;5069780;27;45346;-70